Wetterdaten: Woche 06.06.22 - 12.06.22 (KW23)
Datum Zeit Temp. A. Feuchte A. Luftdruck Regen Wind Richtung Taupunkt Windchill
06.06.2022 00:00 19,0 C 76 % 1019 hPa 0,0 l/m 0,3 km/h (0 Bft) S-SW 14,7 C 19,0 C
06.06.2022 01:00 17,6 C 81 % 1019 hPa 0,0 l/m 0,0 km/h (0 Bft) S-SW 14,3 C 17,6 C
06.06.2022 02:00 16,6 C 83 % 1019 hPa 0,0 l/m 0,0 km/h (0 Bft) S-SW 13,8 C 16,6 C
06.06.2022 03:00 16,1 C 85 % 1020 hPa 0,0 l/m 0,0 km/h (0 Bft) SW 13,5 C 16,1 C
06.06.2022 04:00 15,3 C 86 % 1020 hPa 0,0 l/m 0,0 km/h (0 Bft) SW 13,0 C 15,3 C
06.06.2022 05:00 14,6 C 88 % 1020 hPa 0,0 l/m 0,0 km/h (0 Bft) W 12,5 C 14,6 C
06.06.2022 06:00 14,4 C 89 % 1020 hPa 0,0 l/m 0,0 km/h (0 Bft) SW 12,6 C 14,4 C
06.06.2022 07:00 16,0 C 87 % 1021 hPa 0,0 l/m 0,0 km/h (0 Bft) S-SW 13,9 C 16,0 C
06.06.2022 08:00 18,1 C 80 % 1021 hPa 0,0 l/m 2,5 km/h (1 Bft) S-SW 14,7 C 17,9 C
06.06.2022 09:00 20,3 C 73 % 1021 hPa 0,0 l/m 0,6 km/h (0 Bft) S-SW 15,2 C 20,3 C
06.06.2022 10:00 22,4 C 64 % 1021 hPa 0,0 l/m 0,1 km/h (0 Bft) W-SW 15,2 C 22,4 C
06.06.2022 11:00 23,7 C 58 % 1021 hPa 0,0 l/m 0,3 km/h (0 Bft) S-SW 14,9 C 23,7 C
06.06.2022 12:00 25,4 C 52 % 1021 hPa 0,0 l/m 0,2 km/h (0 Bft) SW 14,8 C 25,4 C
06.06.2022 13:00 25,7 C 49 % 1020 hPa 0,0 l/m 1,6 km/h (1 Bft) SW 14,1 C 25,7 C
06.06.2022 14:00 26,4 C 46 % 1020 hPa 0,0 l/m 0,8 km/h (0 Bft) S-SW 13,7 C 26,3 C
06.06.2022 15:00 18,5 C 67 % 1021 hPa 0,0 l/m 1,4 km/h (1 Bft) W-NW 12,3 C 18,4 C
06.06.2022 16:00 18,6 C 72 % 1021 hPa 0,0 l/m 0,0 km/h (0 Bft) W-NW 13,4 C 18,6 C
06.06.2022 17:00 22,2 C 60 % 1020 hPa 0,0 l/m 0,9 km/h (0 Bft) SW 14,1 C 22,1 C
06.06.2022 18:00 20,9 C 58 % 1020 hPa 0,0 l/m 0,0 km/h (0 Bft) SW 12,3 C 20,9 C
06.06.2022 19:00 20,6 C 58 % 1020 hPa 0,0 l/m 0,0 km/h (0 Bft) W 12,0 C 20,6 C
06.06.2022 20:00 19,2 C 61 % 1020 hPa 0,0 l/m 0,0 km/h (0 Bft) SW 11,3 C 19,2 C
06.06.2022 21:00 16,6 C 67 % 1020 hPa 0,0 l/m 0,0 km/h (0 Bft) N 10,3 C 16,6 C
06.06.2022 22:00 15,4 C 70 % 1020 hPa 0,0 l/m 0,0 km/h (0 Bft) O-NO 10,0 C 15,4 C
06.06.2022 23:00 15,0 C 73 % 1020 hPa 0,0 l/m 0,0 km/h (0 Bft) O-NO 10,1 C 15,0 C
07.06.2022 00:00 14,8 C 74 % 1020 hPa 0,0 l/m 0,0 km/h (0 Bft) O-NO 10,3 C 14,8 C
07.06.2022 01:00 14,1 C 77 % 1020 hPa 0,0 l/m 0,0 km/h (0 Bft) O-NO 10,1 C 14,1 C
07.06.2022 02:00 13,3 C 79 % 1020 hPa 0,0 l/m 0,0 km/h (0 Bft) O-NO 9,8 C 13,3 C
07.06.2022 03:00 13,3 C 80 % 1020 hPa 0,0 l/m 0,0 km/h (0 Bft) O-NO 10,0 C 13,3 C
07.06.2022 04:00 13,4 C 81 % 1019 hPa 0,0 l/m 0,0 km/h (0 Bft) O-NO 10,2 C 13,4 C
07.06.2022 05:00 13,2 C 82 % 1019 hPa 0,0 l/m 0,0 km/h (0 Bft) O-NO 10,2 C 13,2 C
07.06.2022 06:00 13,6 C 83 % 1019 hPa 0,0 l/m 0,0 km/h (0 Bft) O-NO 10,8 C 13,6 C
07.06.2022 07:00 14,6 C 83 % 1019 hPa 0,0 l/m 0,0 km/h (0 Bft) O-NO 11,8 C 14,6 C
07.06.2022 08:00 18,5 C 74 % 1020 hPa 0,0 l/m 0,0 km/h (0 Bft) S 13,7 C 18,5 C
07.06.2022 09:00 19,9 C 64 % 1020 hPa 0,0 l/m 0,0 km/h (0 Bft) N-NW 12,9 C 19,9 C
07.06.2022 10:00 19,9 C 58 % 1019 hPa 0,0 l/m 0,0 km/h (0 Bft) N-NW 11,3 C 19,9 C
07.06.2022 11:00 22,3 C 52 % 1019 hPa 0,0 l/m 0,0 km/h (0 Bft) SW 12,0 C 22,3 C
07.06.2022 12:00 23,3 C 49 % 1019 hPa 0,0 l/m 0,0 km/h (0 Bft) NW 11,9 C 23,3 C
07.06.2022 13:00 23,0 C 49 % 1018 hPa 0,0 l/m 0,1 km/h (0 Bft) NW 11,6 C 23,0 C
07.06.2022 14:00 23,1 C 48 % 1018 hPa 0,0 l/m 1,9 km/h (1 Bft) N-NW 11,5 C 22,9 C
07.06.2022 15:00 24,8 C 44 % 1018 hPa 0,0 l/m 0,1 km/h (0 Bft) N-NO 11,6 C 24,8 C
07.06.2022 16:00 24,6 C 40 % 1018 hPa 0,0 l/m 0,0 km/h (0 Bft) W-NW 10,3 C 24,6 C
07.06.2022 17:00 23,8 C 41 % 1017 hPa 0,0 l/m 0,0 km/h (0 Bft) S-SW 9,7 C 23,8 C
07.06.2022 18:00 23,4 C 39 % 1017 hPa 0,0 l/m 0,0 km/h (0 Bft) N-NW 8,8 C 23,4 C
07.06.2022 19:00 22,1 C 42 % 1017 hPa 0,0 l/m 0,0 km/h (0 Bft) N-NW 8,6 C 22,1 C
07.06.2022 20:00 20,1 C 48 % 1017 hPa 0,0 l/m 0,8 km/h (0 Bft) N 8,7 C 20,0 C
07.06.2022 21:00 17,7 C 55 % 1018 hPa 0,0 l/m 0,0 km/h (0 Bft) N 8,6 C 17,7 C
07.06.2022 22:00 16,6 C 58 % 1018 hPa 0,0 l/m 0,0 km/h (0 Bft) N 8,4 C 16,6 C
07.06.2022 23:00 15,4 C 62 % 1018 hPa 0,0 l/m 0,0 km/h (0 Bft) N 8,0 C 15,4 C
08.06.2022 00:00 15,3 C 64 % 1017 hPa 0,0 l/m 0,0 km/h (0 Bft) N 8,5 C 15,3 C
08.06.2022 01:00 15,2 C 65 % 1017 hPa 0,0 l/m 0,0 km/h (0 Bft) N 8,7 C 15,2 C
08.06.2022 02:00 14,6 C 68 % 1017 hPa 0,0 l/m 0,0 km/h (0 Bft) N 8,7 C 14,6 C
08.06.2022 03:00 14,8 C 69 % 1017 hPa 0,0 l/m 0,0 km/h (0 Bft) N 9,2 C 14,8 C
08.06.2022 04:00 13,6 C 73 % 1016 hPa 0,0 l/m 0,0 km/h (0 Bft) N 8,9 C 13,6 C
08.06.2022 05:00 12,9 C 76 % 1016 hPa 0,0 l/m 0,0 km/h (0 Bft) N 8,9 C 12,9 C
08.06.2022 06:00 13,4 C 79 % 1016 hPa 0,0 l/m 0,0 km/h (0 Bft) O 9,8 C 13,4 C
08.06.2022 07:00 14,9 C 79 % 1016 hPa 0,0 l/m 0,0 km/h (0 Bft) O 11,3 C 14,9 C
08.06.2022 08:00 17,6 C 75 % 1017 hPa 0,0 l/m 0,0 km/h (0 Bft) S-SW 13,1 C 17,6 C
08.06.2022 09:00 19,4 C 69 % 1016 hPa 0,0 l/m 0,2 km/h (0 Bft) S-SO 13,6 C 19,4 C
08.06.2022 10:00 21,0 C 63 % 1016 hPa 0,0 l/m 1,2 km/h (1 Bft) S-SO 13,7 C 20,9 C
08.06.2022 11:00 24,3 C 55 % 1015 hPa 0,0 l/m 2,6 km/h (1 Bft) S-SO 14,5 C 24,1 C
08.06.2022 12:00 24,0 C 51 % 1014 hPa 0,0 l/m 0,0 km/h (0 Bft) SW 13,3 C 24,0 C
08.06.2022 13:00 26,6 C 46 % 1014 hPa 0,0 l/m 0,6 km/h (0 Bft) SO 14,0 C 26,6 C
08.06.2022 14:00 27,9 C 39 % 1014 hPa 0,0 l/m 0,6 km/h (0 Bft) SW 12,8 C 27,9 C
08.06.2022 15:00 27,5 C 38 % 1013 hPa 0,0 l/m 0,0 km/h (0 Bft) S 11,8 C 27,5 C
08.06.2022 16:00 27,2 C 39 % 1013 hPa 0,0 l/m 0,0 km/h (0 Bft) W-SW 11,9 C 27,2 C
08.06.2022 17:00 25,4 C 42 % 1012 hPa 0,0 l/m 0,0 km/h (0 Bft) SW 11,4 C 25,4 C
08.06.2022 18:00 24,0 C 45 % 1012 hPa 0,0 l/m 0,0 km/h (0 Bft) SW 11,4 C 24,0 C
08.06.2022 19:00 22,3 C 49 % 1012 hPa 0,0 l/m 0,0 km/h (0 Bft) W-SW 11,1 C 22,3 C
08.06.2022 20:00 20,1 C 54 % 1012 hPa 0,0 l/m 0,0 km/h (0 Bft) W-SW 10,6 C 20,1 C
08.06.2022 21:00 18,4 C 58 % 1013 hPa 0,0 l/m 0,0 km/h (0 Bft) W-SW 10,1 C 18,4 C
08.06.2022 22:00 17,2 C 63 % 1013 hPa 0,0 l/m 0,0 km/h (0 Bft) W-SW 10,0 C 17,2 C
08.06.2022 23:00 16,6 C 70 % 1014 hPa 0,0 l/m 0,0 km/h (0 Bft) W-NW 11,2 C 16,6 C
09.06.2022 00:00 15,7 C 74 % 1014 hPa 0,0 l/m 0,0 km/h (0 Bft) NW 11,0 C 15,7 C
09.06.2022 01:00 14,6 C 78 % 1014 hPa 0,0 l/m 0,0 km/h (0 Bft) NW 10,8 C 14,6 C
09.06.2022 02:00 14,0 C 82 % 1014 hPa 0,0 l/m 0,0 km/h (0 Bft) W 10,9 C 14,0 C
09.06.2022 03:00 13,7 C 83 % 1014 hPa 0,0 l/m 0,0 km/h (0 Bft) W 10,9 C 13,7 C
09.06.2022 04:00 13,5 C 85 % 1014 hPa 0,0 l/m 0,0 km/h (0 Bft) W 11,0 C 13,5 C
09.06.2022 05:00 13,6 C 85 % 1014 hPa 0,0 l/m 0,0 km/h (0 Bft) W-SW 11,1 C 13,6 C
09.06.2022 06:00 13,9 C 85 % 1015 hPa 0,0 l/m 0,0 km/h (0 Bft) W-SW 11,4 C 13,9 C
09.06.2022 07:00 14,4 C 83 % 1015 hPa 0,0 l/m 0,0 km/h (0 Bft) W-NW 11,6 C 14,4 C
09.06.2022 08:00 17,6 C 76 % 1016 hPa 0,0 l/m 1,1 km/h (1 Bft) NW 13,2 C 17,6 C
09.06.2022 09:00 18,2 C 70 % 1016 hPa 0,0 l/m 1,9 km/h (1 Bft) NW 12,6 C 17,8 C
09.06.2022 10:00 18,1 C 70 % 1017 hPa 0,0 l/m 0,8 km/h (0 Bft) NW 12,5 C 18,0 C
09.06.2022 11:00 18,4 C 71 % 1017 hPa 0,0 l/m 0,0 km/h (0 Bft) N-NW 12,9 C 18,4 C
09.06.2022 12:00 20,0 C 65 % 1018 hPa 0,0 l/m 0,0 km/h (0 Bft) NW 13,1 C 20,0 C
09.06.2022 13:00 20,6 C 62 % 1018 hPa 0,0 l/m 0,6 km/h (0 Bft) N-NW 12,9 C 20,5 C
09.06.2022 14:00 20,9 C 59 % 1018 hPa 0,0 l/m 3,3 km/h (1 Bft) N 12,6 C 20,7 C
09.06.2022 15:00 23,2 C 54 % 1019 hPa 0,0 l/m 0,9 km/h (0 Bft) N-NW 13,4 C 23,2 C
09.06.2022 16:00 24,0 C 49 % 1019 hPa 0,0 l/m 0,2 km/h (0 Bft) W-NW 12,8 C 24,0 C
09.06.2022 17:00 22,8 C 52 % 1020 hPa 0,0 l/m 1,0 km/h (0 Bft) N-NW 12,4 C 22,7 C
09.06.2022 18:00 21,0 C 55 % 1020 hPa 0,0 l/m 0,0 km/h (0 Bft) N 11,7 C 21,0 C
09.06.2022 19:00 19,9 C 59 % 1020 hPa 0,0 l/m 0,0 km/h (0 Bft) N 11,5 C 19,9 C
09.06.2022 20:00 18,9 C 61 % 1021 hPa 0,0 l/m 1,0 km/h (0 Bft) N-NO 11,3 C 18,8 C
09.06.2022 21:00 16,3 C 69 % 1022 hPa 0,0 l/m 3,1 km/h (1 Bft) N 10,6 C 15,8 C
09.06.2022 22:00 15,1 C 71 % 1023 hPa 0,0 l/m 0,0 km/h (0 Bft) N 9,9 C 15,1 C
09.06.2022 23:00 14,0 C 75 % 1024 hPa 0,0 l/m 0,0 km/h (0 Bft) N 9,7 C 14,0 C
10.06.2022 00:00 13,5 C 79 % 1024 hPa 0,0 l/m 0,0 km/h (0 Bft) N 9,9 C 13,5 C
10.06.2022 01:00 12,7 C 81 % 1025 hPa 0,0 l/m 0,0 km/h (0 Bft) N 9,5 C 12,7 C
10.06.2022 02:00 11,7 C 82 % 1025 hPa 0,0 l/m 0,0 km/h (0 Bft) N 8,7 C 11,7 C
10.06.2022 03:00 11,0 C 83 % 1026 hPa 0,0 l/m 0,0 km/h (0 Bft) N 8,3 C 11,0 C
10.06.2022 04:00 10,2 C 85 % 1026 hPa 0,0 l/m 0,0 km/h (0 Bft) N 7,9 C 10,2 C
10.06.2022 05:00 9,9 C 87 % 1027 hPa 0,0 l/m 0,0 km/h (0 Bft) N 7,8 C 9,9 C
10.06.2022 06:00 10,5 C 88 % 1027 hPa 0,0 l/m 0,0 km/h (0 Bft) N 8,6 C 10,5 C
10.06.2022 07:00 12,3 C 88 % 1028 hPa 0,0 l/m 0,0 km/h (0 Bft) N 10,4 C 12,3 C
10.06.2022 08:00 14,9 C 85 % 1028 hPa 0,0 l/m 0,0 km/h (0 Bft) N 12,4 C 14,9 C
10.06.2022 09:00 17,4 C 77 % 1028 hPa 0,0 l/m 0,0 km/h (0 Bft) NO 13,4 C 17,4 C
10.06.2022 10:00 19,9 C 68 % 1028 hPa 0,0 l/m 0,1 km/h (0 Bft) W-SW 13,8 C 19,9 C
10.06.2022 11:00 22,3 C 59 % 1028 hPa 0,0 l/m 1,4 km/h (1 Bft) O-NO 13,9 C 22,1 C
10.06.2022 12:00 24,3 C 51 % 1028 hPa 0,0 l/m 0,8 km/h (0 Bft) N 13,3 C 24,2 C
10.06.2022 13:00 25,3 C 46 % 1028 hPa 0,0 l/m 0,0 km/h (0 Bft) N-NW 12,9 C 25,3 C
10.06.2022 14:00 25,8 C 43 % 1027 hPa 0,0 l/m 0,1 km/h (0 Bft) NW 12,4 C 25,8 C
10.06.2022 15:00 26,6 C 42 % 1027 hPa 0,0 l/m 0,0 km/h (0 Bft) N 12,6 C 26,6 C
10.06.2022 16:00 27,1 C 40 % 1027 hPa 0,0 l/m 0,0 km/h (0 Bft) N 12,4 C 27,1 C
10.06.2022 17:00 25,0 C 43 % 1027 hPa 0,0 l/m 0,0 km/h (0 Bft) N 11,5 C 25,0 C
10.06.2022 18:00 24,9 C 44 % 1026 hPa 0,0 l/m 0,6 km/h (0 Bft) N 11,9 C 24,9 C
10.06.2022 19:00 23,6 C 46 % 1026 hPa 0,0 l/m 0,0 km/h (0 Bft) N 11,2 C 23,6 C
10.06.2022 20:00 20,9 C 50 % 1027 hPa 0,0 l/m 0,0 km/h (0 Bft) N 10,1 C 20,9 C
10.06.2022 21:00 19,5 C 53 % 1027 hPa 0,0 l/m 0,0 km/h (0 Bft) N 9,5 C 19,5 C
10.06.2022 22:00 17,4 C 58 % 1027 hPa 0,0 l/m 0,0 km/h (0 Bft) N-NO 9,1 C 17,4 C
10.06.2022 23:00 16,3 C 62 % 1027 hPa 0,0 l/m 0,0 km/h (0 Bft) N-NO 9,0 C 16,3 C
11.06.2022 00:00 15,3 C 65 % 1028 hPa 0,0 l/m 0,0 km/h (0 Bft) N-NO 8,8 C 15,3 C
11.06.2022 01:00 14,2 C 68 % 1028 hPa 0,0 l/m 0,0 km/h (0 Bft) N-NO 8,5 C 14,2 C
11.06.2022 02:00 13,2 C 73 % 1027 hPa 0,0 l/m 0,0 km/h (0 Bft) N-NO 8,5 C 13,2 C
11.06.2022 03:00 12,4 C 76 % 1027 hPa 0,0 l/m 0,0 km/h (0 Bft) N-NO 8,3 C 12,4 C
11.06.2022 04:00 11,9 C 78 % 1027 hPa 0,0 l/m 0,0 km/h (0 Bft) N-NO 8,3 C 11,9 C
11.06.2022 05:00 12,2 C 80 % 1027 hPa 0,0 l/m 0,0 km/h (0 Bft) N-NO 8,8 C 12,2 C
11.06.2022 06:00 13,8 C 78 % 1028 hPa 0,0 l/m 0,0 km/h (0 Bft) O 10,0 C 13,8 C
11.06.2022 07:00 15,5 C 74 % 1028 hPa 0,0 l/m 0,0 km/h (0 Bft) O 10,9 C 15,5 C
11.06.2022 08:00 17,5 C 68 % 1028 hPa 0,0 l/m 0,0 km/h (0 Bft) O 11,6 C 17,5 C
11.06.2022 09:00 20,6 C 61 % 1028 hPa 0,0 l/m 0,0 km/h (0 Bft) O 12,8 C 20,6 C
11.06.2022 10:00 23,3 C 55 % 1028 hPa 0,0 l/m 0,0 km/h (0 Bft) O 13,8 C 23,3 C
11.06.2022 11:00 26,1 C 49 % 1028 hPa 0,0 l/m 0,0 km/h (0 Bft) SO 14,4 C 26,1 C
11.06.2022 12:00 25,9 C 45 % 1028 hPa 0,0 l/m 0,3 km/h (0 Bft) N-NW 12,9 C 25,9 C
11.06.2022 13:00 26,7 C 43 % 1028 hPa 0,0 l/m 0,1 km/h (0 Bft) SW 13,1 C 26,7 C
11.06.2022 14:00 27,7 C 40 % 1027 hPa 0,0 l/m 0,0 km/h (0 Bft) N-NW 12,9 C 27,7 C
11.06.2022 15:00 25,8 C 43 % 1027 hPa 0,0 l/m 0,0 km/h (0 Bft) N-NW 12,2 C 25,8 C
11.06.2022 16:00 26,8 C 42 % 1027 hPa 0,0 l/m 0,0 km/h (0 Bft) N 12,8 C 26,8 C
11.06.2022 17:00 25,6 C 46 % 1027 hPa 0,0 l/m 0,1 km/h (0 Bft) N-NW 13,0 C 25,6 C
11.06.2022 18:00 25,4 C 47 % 1027 hPa 0,0 l/m 0,0 km/h (0 Bft) N-NW 13,3 C 25,4 C
11.06.2022 19:00 24,6 C 48 % 1027 hPa 0,0 l/m 0,0 km/h (0 Bft) N 12,7 C 24,6 C
11.06.2022 20:00 22,6 C 51 % 1027 hPa 0,0 l/m 0,0 km/h (0 Bft) N 12,0 C 22,6 C
11.06.2022 21:00 20,1 C 57 % 1027 hPa 0,0 l/m 0,0 km/h (0 Bft) N 11,4 C 20,1 C
11.06.2022 22:00 17,7 C 63 % 1027 hPa 0,0 l/m 0,0 km/h (0 Bft) N-NO 10,6 C 17,7 C
11.06.2022 23:00 16,4 C 67 % 1027 hPa 0,0 l/m 0,0 km/h (0 Bft) O-NO 10,3 C 16,4 C
12.06.2022 00:00 15,6 C 71 % 1027 hPa 0,0 l/m 0,0 km/h (0 Bft) O-NO 10,4 C 15,6 C
12.06.2022 01:00 15,1 C 73 % 1027 hPa 0,0 l/m 0,0 km/h (0 Bft) O-NO 10,3 C 15,1 C
12.06.2022 02:00 15,0 C 75 % 1027 hPa 0,0 l/m 0,0 km/h (0 Bft) O-NO 10,6 C 15,0 C
12.06.2022 03:00 16,1 C 74 % 1026 hPa 0,0 l/m 0,0 km/h (0 Bft) O-NO 11,4 C 16,1 C
12.06.2022 04:00 16,4 C 73 % 1026 hPa 0,0 l/m 0,0 km/h (0 Bft) NO 11,5 C 16,4 C
12.06.2022 05:00 16,1 C 73 % 1026 hPa 0,0 l/m 0,0 km/h (0 Bft) NO 11,3 C 16,1 C
12.06.2022 06:00 16,0 C 74 % 1026 hPa 0,0 l/m 0,0 km/h (0 Bft) O 11,3 C 16,0 C
12.06.2022 07:00 17,3 C 73 % 1026 hPa 0,0 l/m 0,0 km/h (0 Bft) O 12,4 C 17,3 C
12.06.2022 08:00 19,2 C 70 % 1026 hPa 0,0 l/m 0,0 km/h (0 Bft) O-NO 13,6 C 19,2 C
12.06.2022 09:00 21,0 C 66 % 1026 hPa 0,0 l/m 0,1 km/h (0 Bft) N 14,5 C 21,0 C
12.06.2022 10:00 22,5 C 62 % 1026 hPa 0,0 l/m 0,9 km/h (0 Bft) N-NW 14,9 C 22,4 C
12.06.2022 11:00 24,7 C 57 % 1026 hPa 0,0 l/m 0,0 km/h (0 Bft) NW 15,5 C 24,7 C
12.06.2022 12:00 26,2 C 51 % 1026 hPa 0,0 l/m 1,6 km/h (1 Bft) N-NW 15,2 C 26,1 C
12.06.2022 13:00 27,2 C 46 % 1025 hPa 0,0 l/m 0,8 km/h (0 Bft) N-NW 14,6 C 27,1 C
12.06.2022 14:00 28,2 C 42 % 1024 hPa 0,0 l/m 0,3 km/h (0 Bft) N-NW 14,0 C 28,2 C
12.06.2022 15:00 29,0 C 40 % 1024 hPa 0,0 l/m 1,7 km/h (1 Bft) N-NW 13,9 C 29,0 C
12.06.2022 16:00 28,8 C 39 % 1023 hPa 0,0 l/m 0,0 km/h (0 Bft) N 13,4 C 28,8 C
12.06.2022 17:00 27,3 C 41 % 1023 hPa 0,0 l/m 1,0 km/h (0 Bft) N 12,7 C 27,2 C
12.06.2022 18:00 25,8 C 43 % 1022 hPa 0,0 l/m 0,6 km/h (0 Bft) N 12,2 C 25,8 C
12.06.2022 19:00 25,3 C 43 % 1022 hPa 0,0 l/m 0,0 km/h (0 Bft) N-NW 11,7 C 25,3 C
12.06.2022 20:00 23,6 C 44 % 1022 hPa 0,0 l/m 0,0 km/h (0 Bft) N 10,6 C 23,6 C
12.06.2022 21:00 21,0 C 49 % 1022 hPa 0,0 l/m 0,6 km/h (0 Bft) N 9,8 C 21,0 C
12.06.2022 22:00 19,2 C 53 % 1023 hPa 0,0 l/m 4,9 km/h (1 Bft) N 9,4 C 18,6 C
12.06.2022 23:00 17,5 C 56 % 1023 hPa 0,0 l/m 0,7 km/h (0 Bft) N 8,5 C 17,4 C
Min-Datum _ 10.06.22 08.06.22 08.06.22 - 12.06.22 - 10.06.22 10.06.22
_ Min-Zeit 05:03 16:13 20:03 - 23:03 - 05:03 05:03
Minimum _ 9,9 C 37 % 1012 hPa - 0,0 km/h (0 Bft) - 7,7 C 9,9 C
Max-Datum _ 12.06.22 06.06.22 11.06.22 12.06.22 09.06.22 - 12.06.22 12.06.22
_ Max-Zeit 15:43 07:03 13:03 23:03 09:03 - 11:23 15:38
Maximum _ 29,5 C 89 % 1028 hPa 0,0 l/m 19,1 km/h
NW (3 Bft)
- 15,8 C 29,4 C
Durchschnitt _ 19,3 C 63 % 1021 hPa #0,0 l/m 0,3 km/h (0 Bft) N 11,6 C 19,3 C